Terminal Aerodrome Forecast
Issued by NWS

Home | Current Version | Previous Version | Text Only | Print | Product List | Glossary On
Versions: 1 2 3 4 5 6 7 8 9 10 11 12 13 14 15 16 17 18 19 20
000
FTUS43 KIND 300100 AAA
TAFHUF
TAF AMD
KHUF 300153Z 3002/3024 30012KT P6SM OVC025
     FM301400 35012KT P6SM BKN025
     FM302100 35007KT P6SM SCT030 SCT250=

USA.gov is the U.S. government's official web portal to all federal, state and local government web resources and services.